Terminal Aerodrome Forecast
Issued by NWS

Home | Current Version | Previous Version | Text Only | Print | Product List | Glossary On
Versions: 1 2 3 4 5 6 7 8 9 10 11 12 13 14 15 16 17 18 19 20 21 22 23 24 25 26 27 28
000
FTUS45 KGJT 031301 AAA
TAFASE
TAF AMD
KASE 031301Z 0313/0412 00000KT P6SM VCSH FEW050 BKN080
      TEMPO 0313/0314 -SHRA SCT050 BKN070
     FM031500 02003KT P6SM SCT090 SCT200
     FM032000 36008G15KT P6SM VCSH FEW120 SCT200
     FM040000 26012G20KT P6SM BKN100
     FM040400 17010KT P6SM BKN250=

USA.gov is the U.S. government's official web portal to all federal, state and local government web resources and services.